Terminal Aerodrome Forecast
Issued by NWS

Home | Current Version | Previous Version | Graphics & Text | Print | Product List | Glossary On
Versions: 1 2 3 4 5 6 7 8 9 10 11 12 13 14 15 16 17 18 19 20 21 22 23 24 25 26 27 28 29 30 31 32 33 34 35
000
FTUS43 KLOT 280303 AAA
TAFMDW
TAF AMD
KMDW 280303Z 2803/2824 35005KT P6SM SKC
     FM281500 20008KT P6SM FEW050 BKN250
     FM282200 18011G15KT P6SM VCTS BKN045CB BKN100=

USA.gov is the U.S. government's official web portal to all federal, state and local government web resources and services.